Kyokuhoumaru No.12 — JL5963 — position and weather

sailwx.info

Track history (hours):
 
Tides and Currents Weather Stations Pressure Air Temp Water Temp Dewpoint Dewpoint Depression Visibility Wind Speed Wind Dir Waves Ship Positions

Kyokuhoumaru No.12

Last reported at 2014-Aug-18 13:30 UTC. Time now 2014-Aug-20 12:47 UTC.
Position N 34°60' E 139°29'.

Length 57 m.

Type: Tanker. MMSI: 431500879.

Date/timePositionNaut miles runAvg speedWind from/ knotsBaromVisibWave heightAir tempDewpointWater temp
2014-Aug-18 13:30N 34°60' E 139°29'10 9.5
2014-Aug-18 12:29N 35°05' E 139°39'9 9.4
2014-Aug-18 11:32N 35°12' E 139°46'9 9.0
2014-Aug-18 10:31N 35°20' E 139°42'8 8.2
2014-Aug-18 09:33N 35°27' E 139°47'8 8.3
2014-Aug-18 08:34N 35°33' E 139°54'8 7.4
2014-Aug-18 07:32N 35°40' E 139°57'1 1.0
2014-Aug-18 06:32N 35°41' E 139°57'0 0.0
2014-Aug-18 05:32N 35°41' E 139°57'0 0.0
2014-Aug-18 04:29N 35°41' E 139°57'4 4.5
2014-Aug-18 03:33N 35°37' E 139°56'2 1.6
2014-Aug-18 02:28N 35°36' E 139°54'0 0.0
2014-Aug-18 01:28N 35°36' E 139°54'0 0.0
2014-Aug-18 00:28N 35°36' E 139°54'0 0.0
2014-Aug-17 18:31N 35°36' E 139°54'0 0.0
2014-Aug-17 17:31N 35°36' E 139°54'0 0.0
2014-Aug-17 16:31N 35°36' E 139°54'0 0.0
2014-Aug-17 15:28N 35°36' E 139°54'0 0.0
2014-Aug-17 14:31N 35°36' E 139°54'0 0.0
2014-Aug-17 13:31N 35°36' E 139°54'0 0.0
2014-Aug-17 12:28N 35°36' E 139°54'0 0.1
2014-Aug-17 11:31N 35°36' E 139°54'0 0.0
2014-Aug-17 10:31N 35°36' E 139°54'0 0.0
2014-Aug-17 09:31N 35°36' E 139°54'0 0.0
2014-Aug-17 08:31N 35°36' E 139°54'0 0.0
2014-Aug-17 07:31N 35°36' E 139°54'0 0.0
2014-Aug-17 06:31N 35°36' E 139°54'0 0.0
2014-Aug-17 05:31N 35°36' E 139°54'0 0.0
2014-Aug-17 04:31N 35°36' E 139°54'0 0.0
2014-Aug-17 03:28N 35°36' E 139°54'0 0.0
2014-Aug-17 02:31N 35°36' E 139°54'0 0.0
2014-Aug-17 01:28N 35°36' E 139°54'0 0.0
2014-Aug-17 00:31N 35°36' E 139°54'0 0.0
2014-Aug-16 23:31N 35°36' E 139°54'0 0.0
2014-Aug-16 22:31N 35°36' E 139°54'0 0.0
2014-Aug-16 21:31N 35°36' E 139°54'0 0.0
2014-Aug-16 20:31N 35°36' E 139°54'0 0.0
2014-Aug-16 19:31N 35°36' E 139°54'0 0.0
2014-Aug-16 18:31N 35°36' E 139°54'0 0.0
2014-Aug-16 17:28N 35°36' E 139°54'0 0.0
2014-Aug-16 16:31N 35°36' E 139°54'0 0.0
2014-Aug-16 15:28N 35°36' E 139°54'0 0.0
2014-Aug-16 14:31N 35°36' E 139°54'0 0.0
2014-Aug-16 13:31N 35°36' E 139°54'0 0.0
2014-Aug-16 12:31N 35°36' E 139°54'0 0.0
2014-Aug-16 11:31N 35°36' E 139°54'0 0.0
2014-Aug-16 10:31N 35°36' E 139°54'0 0.0
2014-Aug-16 09:31N 35°36' E 139°54'0 0.0
2014-Aug-16 08:31N 35°36' E 139°54'0 0.1
2014-Aug-16 07:31N 35°36' E 139°54'0 0.1
2014-Aug-16 06:31N 35°36' E 139°54'0 0.1
2014-Aug-16 05:31N 35°36' E 139°54'0 0.0
2014-Aug-16 04:31N 35°36' E 139°54'0 0.0
2014-Aug-16 03:31N 35°36' E 139°54'0 0.0
2014-Aug-16 02:31N 35°36' E 139°54'0 0.0
2014-Aug-16 01:31N 35°36' E 139°54'0 0.0
2014-Aug-16 00:28N 35°36' E 139°54'0 0.0
2014-Aug-15 23:28N 35°36' E 139°54'0 0.0
2014-Aug-15 22:31N 35°36' E 139°54'0 0.0
2014-Aug-15 21:31N 35°36' E 139°54'0 0.0
2014-Aug-15 20:31N 35°36' E 139°54'0 0.0
2014-Aug-15 19:31N 35°36' E 139°54'0 0.0
2014-Aug-15 18:31N 35°36' E 139°54'0 0.0
2014-Aug-15 17:31N 35°36' E 139°54'0 0.0
2014-Aug-15 16:31N 35°36' E 139°54'0 0.0
2014-Aug-15 15:31N 35°36' E 139°54'0 0.0
2014-Aug-15 14:31N 35°36' E 139°54'0 0.0
2014-Aug-15 13:31N 35°36' E 139°54'0 0.0
2014-Aug-15 12:28N 35°36' E 139°54'0 0.0
2014-Aug-15 11:31N 35°36' E 139°54'0 0.1
2014-Aug-15 10:31N 35°36' E 139°54'7 7.4
2014-Aug-15 09:33N 35°29' E 139°52'1110.6
2014-Aug-15 08:32N 35°20' E 139°45'1010.0
2014-Aug-15 07:32N 35°11' E 139°47'10 9.6
2014-Aug-15 06:31N 35°02' E 139°41'226 7.3
2014-Aug-13 23:28N 34°26' E 135°10'910.3
2014-Aug-13 22:33N 34°34' E 135°16'6 4.7
2014-Aug-13 21:20N 34°39' E 135°21'0 0.0
2014-Aug-13 20:32N 34°39' E 135°21'0 0.0
2014-Aug-13 19:26N 34°39' E 135°21'0 0.0
2014-Aug-13 18:32N 34°39' E 135°21'0 0.0
2014-Aug-13 17:32N 34°39' E 135°21'0 0.0
2014-Aug-13 16:20N 34°39' E 135°21'0 0.1
2014-Aug-13 15:32N 34°39' E 135°21'0 0.0
2014-Aug-13 14:32N 34°39' E 135°21'0 0.0
2014-Aug-13 13:26N 34°39' E 135°21'0 0.1
2014-Aug-13 12:32N 34°39' E 135°21'0 0.0
2014-Aug-13 11:26N 34°39' E 135°21'0 0.0
2014-Aug-13 10:32N 34°39' E 135°21'0 0.0
2014-Aug-13 09:32N 34°39' E 135°21'0 0.0
2014-Aug-12 17:26N 34°39' E 135°21'0 0.0
2014-Aug-12 16:32N 34°39' E 135°21'0 0.0
2014-Aug-12 15:26N 34°39' E 135°21'0 0.0
2014-Aug-12 14:32N 34°39' E 135°21'0 0.0
2014-Aug-12 13:32N 34°39' E 135°21'0 0.0
2014-Aug-12 12:32N 34°39' E 135°21'0 0.0
2014-Aug-12 11:32N 34°39' E 135°21'0 0.0
2014-Aug-12 10:26N 34°39' E 135°21'0 0.0
2014-Aug-12 09:32N 34°39' E 135°21'0 0.0
2014-Aug-12 08:26N 34°39' E 135°21'0 0.0
2014-Aug-12 07:26N 34°39' E 135°21'0 0.0
2014-Aug-12 06:20N 34°39' E 135°21'0 0.0
2014-Aug-12 05:32N 34°39' E 135°21'0 0.0
2014-Aug-12 04:32N 34°39' E 135°21'0 0.0
2014-Aug-12 03:32N 34°39' E 135°21'0 0.0
2014-Aug-12 02:26N 34°39' E 135°21'0 0.0
2014-Aug-12 01:26N 34°39' E 135°21'5 5.3
2014-Aug-12 00:32N 34°35' E 135°17'  
Track history (hours):
 
Tides and Currents Weather Stations Pressure Air Temp Water Temp Dewpoint Dewpoint Depression Visibility Wind Speed Wind Dir Waves Ship Positions

Kyokuhoumaru No.12

Last reported at 2014-Aug-18 13:30 UTC. Time now 2014-Aug-20 12:47 UTC.
Position N 34°60' E 139°29'.

Length 57 m.

Type: Tanker. MMSI: 431500879.

Date/timePositionNaut miles runAvg speedWind from/ knotsBaromVisibWave heightAir tempDewpointWater temp
2014-Aug-18 13:30N 34°60' E 139°29'10 9.5
2014-Aug-18 12:29N 35°05' E 139°39'9 9.4
2014-Aug-18 11:32N 35°12' E 139°46'9 9.0
2014-Aug-18 10:31N 35°20' E 139°42'8 8.2
2014-Aug-18 09:33N 35°27' E 139°47'8 8.3
2014-Aug-18 08:34N 35°33' E 139°54'8 7.4
2014-Aug-18 07:32N 35°40' E 139°57'1 1.0
2014-Aug-18 06:32N 35°41' E 139°57'0 0.0
2014-Aug-18 05:32N 35°41' E 139°57'0 0.0
2014-Aug-18 04:29N 35°41' E 139°57'4 4.5
2014-Aug-18 03:33N 35°37' E 139°56'2 1.6
2014-Aug-18 02:28N 35°36' E 139°54'0 0.0
2014-Aug-18 01:28N 35°36' E 139°54'0 0.0
2014-Aug-18 00:28N 35°36' E 139°54'0 0.0
2014-Aug-17 18:31N 35°36' E 139°54'0 0.0
2014-Aug-17 17:31N 35°36' E 139°54'0 0.0
2014-Aug-17 16:31N 35°36' E 139°54'0 0.0
2014-Aug-17 15:28N 35°36' E 139°54'0 0.0
2014-Aug-17 14:31N 35°36' E 139°54'0 0.0
2014-Aug-17 13:31N 35°36' E 139°54'0 0.0
2014-Aug-17 12:28N 35°36' E 139°54'0 0.1
2014-Aug-17 11:31N 35°36' E 139°54'0 0.0
2014-Aug-17 10:31N 35°36' E 139°54'0 0.0
2014-Aug-17 09:31N 35°36' E 139°54'0 0.0
2014-Aug-17 08:31N 35°36' E 139°54'0 0.0
2014-Aug-17 07:31N 35°36' E 139°54'0 0.0
2014-Aug-17 06:31N 35°36' E 139°54'0 0.0
2014-Aug-17 05:31N 35°36' E 139°54'0 0.0
2014-Aug-17 04:31N 35°36' E 139°54'0 0.0
2014-Aug-17 03:28N 35°36' E 139°54'0 0.0
2014-Aug-17 02:31N 35°36' E 139°54'0 0.0
2014-Aug-17 01:28N 35°36' E 139°54'0 0.0
2014-Aug-17 00:31N 35°36' E 139°54'0 0.0
2014-Aug-16 23:31N 35°36' E 139°54'0 0.0
2014-Aug-16 22:31N 35°36' E 139°54'0 0.0
2014-Aug-16 21:31N 35°36' E 139°54'0 0.0
2014-Aug-16 20:31N 35°36' E 139°54'0 0.0
2014-Aug-16 19:31N 35°36' E 139°54'0 0.0
2014-Aug-16 18:31N 35°36' E 139°54'0 0.0
2014-Aug-16 17:28N 35°36' E 139°54'0 0.0
2014-Aug-16 16:31N 35°36' E 139°54'0 0.0
2014-Aug-16 15:28N 35°36' E 139°54'0 0.0
2014-Aug-16 14:31N 35°36' E 139°54'0 0.0
2014-Aug-16 13:31N 35°36' E 139°54'0 0.0
2014-Aug-16 12:31N 35°36' E 139°54'0 0.0
2014-Aug-16 11:31N 35°36' E 139°54'0 0.0
2014-Aug-16 10:31N 35°36' E 139°54'0 0.0
2014-Aug-16 09:31N 35°36' E 139°54'0 0.0
2014-Aug-16 08:31N 35°36' E 139°54'0 0.1
2014-Aug-16 07:31N 35°36' E 139°54'0 0.1
2014-Aug-16 06:31N 35°36' E 139°54'0 0.1
2014-Aug-16 05:31N 35°36' E 139°54'0 0.0
2014-Aug-16 04:31N 35°36' E 139°54'0 0.0
2014-Aug-16 03:31N 35°36' E 139°54'0 0.0
2014-Aug-16 02:31N 35°36' E 139°54'0 0.0
2014-Aug-16 01:31N 35°36' E 139°54'0 0.0
2014-Aug-16 00:28N 35°36' E 139°54'0 0.0
2014-Aug-15 23:28N 35°36' E 139°54'0 0.0
2014-Aug-15 22:31N 35°36' E 139°54'0 0.0
2014-Aug-15 21:31N 35°36' E 139°54'0 0.0
2014-Aug-15 20:31N 35°36' E 139°54'0 0.0
2014-Aug-15 19:31N 35°36' E 139°54'0 0.0
2014-Aug-15 18:31N 35°36' E 139°54'0 0.0
2014-Aug-15 17:31N 35°36' E 139°54'0 0.0
2014-Aug-15 16:31N 35°36' E 139°54'0 0.0
2014-Aug-15 15:31N 35°36' E 139°54'0 0.0
2014-Aug-15 14:31N 35°36' E 139°54'0 0.0
2014-Aug-15 13:31N 35°36' E 139°54'0 0.0
2014-Aug-15 12:28N 35°36' E 139°54'0 0.0
2014-Aug-15 11:31N 35°36' E 139°54'0 0.1
2014-Aug-15 10:31N 35°36' E 139°54'7 7.4
2014-Aug-15 09:33N 35°29' E 139°52'1110.6
2014-Aug-15 08:32N 35°20' E 139°45'1010.0
2014-Aug-15 07:32N 35°11' E 139°47'10 9.6
2014-Aug-15 06:31N 35°02' E 139°41'226 7.3
2014-Aug-13 23:28N 34°26' E 135°10'910.3
2014-Aug-13 22:33N 34°34' E 135°16'6 4.7
2014-Aug-13 21:20N 34°39' E 135°21'0 0.0
2014-Aug-13 20:32N 34°39' E 135°21'0 0.0
2014-Aug-13 19:26N 34°39' E 135°21'0 0.0
2014-Aug-13 18:32N 34°39' E 135°21'0 0.0
2014-Aug-13 17:32N 34°39' E 135°21'0 0.0
2014-Aug-13 16:20N 34°39' E 135°21'0 0.1
2014-Aug-13 15:32N 34°39' E 135°21'0 0.0
2014-Aug-13 14:32N 34°39' E 135°21'0 0.0
2014-Aug-13 13:26N 34°39' E 135°21'0 0.1
2014-Aug-13 12:32N 34°39' E 135°21'0 0.0
2014-Aug-13 11:26N 34°39' E 135°21'0 0.0
2014-Aug-13 10:32N 34°39' E 135°21'0 0.0
2014-Aug-13 09:32N 34°39' E 135°21'0 0.0
2014-Aug-12 17:26N 34°39' E 135°21'0 0.0
2014-Aug-12 16:32N 34°39' E 135°21'0 0.0
2014-Aug-12 15:26N 34°39' E 135°21'0 0.0
2014-Aug-12 14:32N 34°39' E 135°21'0 0.0
2014-Aug-12 13:32N 34°39' E 135°21'0 0.0
2014-Aug-12 12:32N 34°39' E 135°21'0 0.0
2014-Aug-12 11:32N 34°39' E 135°21'0 0.0
2014-Aug-12 10:26N 34°39' E 135°21'0 0.0
2014-Aug-12 09:32N 34°39' E 135°21'0 0.0
2014-Aug-12 08:26N 34°39' E 135°21'0 0.0
2014-Aug-12 07:26N 34°39' E 135°21'0 0.0
2014-Aug-12 06:20N 34°39' E 135°21'0 0.0
2014-Aug-12 05:32N 34°39' E 135°21'0 0.0
2014-Aug-12 04:32N 34°39' E 135°21'0 0.0
2014-Aug-12 03:32N 34°39' E 135°21'0 0.0
2014-Aug-12 02:26N 34°39' E 135°21'0 0.0
2014-Aug-12 01:26N 34°39' E 135°21'5 5.3
2014-Aug-12 00:32N 34°35' E 135°17'  

Dump ship's entire track history